Ana Sayfa
METAR-TAF:

METAR-TAF

Havaalanları :

Wellsville Municipal Airport (Tarantine Field)

Wellsville, New York, Amerika Birleşik Devletleri

Enlem: 42-06-27N, Boylam: 077-59-04W, yükseklik: 647 m

Güncel hava durumu gözlemi

Rapor saat 04:56 UTC de 26 dakika önce yapıldı.
Rüzgar kuzeybatıdan 13 kt
Sıcaklık 2°C
Nem 51%
Basınç 1012 hPa
Görüş mesafesi: 16.1 km
Açık gökyüzü

METAR: KELZ 030456Z AUTO 32013KT 10SM CLR 02/M07 A2987 RMK AO2 SLP130 T00221067 400941011

Saat: 01:22 (05:22 UTC)


TAF: eksik

4.000'den fazla havaalanı için hava durumu gözlemleri ve tahminleri (METAR ve TAF raporları).

Kullanılabilir istasyonlar harita üzerinde sarı ve kırmızı noktalarla gösterilir.

İstasyonun adını görmek için fareyi noktanın üzerinde gezdirin.

Sonrasında hava gözlem ve tahminlerini görmek için tıklayın.

Haritayı değiştirmek için: yaklaştırmak için siyah artı işaretli yeşil düğmeye ve uzaklaştırmak için de eksi işaretli düğmeye hızla tıklayın; bitişik haritalar için yeşil okları kullanın.


METAR-TAF: